Flight Track Log - Related Links

Times and Time Zones

All times are in EDT time to prevent confusion due to time zone crossing. See the UCA3596 flight status page for this flight to view local times or setup timezone preferences in your user account.

Time Position Orientation Groundspeed Altitude Reporting Facility
EDT Latitude Longitude Course Direction KTS MPH feet Rate Location/Type
Thu 01:09:00 PM 39.6023 -77.1747 19° North  Level Estimated
Thu 01:10:00 PM 39.6677 -77.1459 19° North  Level Estimated
Thu 01:11:00 PM 39.7332 -77.1170 19° North  Level Estimated
Thu 01:12:00 PM 39.7793 -77.0966 19° North  Level Estimated
Thu 01:13:00 PM 39.8253 -77.0762 19° North  Level Estimated
Thu 01:14:00 PM 39.8714 -77.0558 19° North  Level Estimated
Thu 01:15:00 PM 39.9175 -77.0353 19° North  Level Estimated
Thu 01:16:00 PM 39.9636 -77.0149 19° North  Level Estimated
Thu 01:17:00 PM 40.0096 -76.9943 19° North  Level Estimated
Thu 01:18:00 PM 40.0557 -76.9738 19° North  Level Estimated
Thu 01:19:00 PM 40.1017 -76.9533 19° North  Level Estimated
Thu 01:20:00 PM 40.1478 -76.9327 19° North  Level Estimated
Thu 01:21:00 PM 40.1938 -76.9120 19° North  Level Estimated
Thu 01:22:00 PM 40.2399 -76.8914 19° North  Level Estimated
Thu 01:23:00 PM 40.2859 -76.8707 19° North  Level Estimated
Thu 01:24:00 PM 40.3319 -76.8500 19° North  Level Estimated
Thu 01:25:00 PM 40.3780 -76.8293 19° North  Level Estimated
Thu 01:26:00 PM 40.4240 -76.8085 19° North  Level Estimated
Thu 01:27:00 PM 40.4700 -76.7878 19° North  Level Estimated
Thu 01:28:00 PM 40.5160 -76.7669 19° North  Level Estimated
Thu 01:29:00 PM 40.5621 -76.7461 19° North  Level Estimated
Thu 01:30:00 PM 40.6081 -76.7252 19° North  Level Estimated
Thu 01:31:00 PM 40.6541 -76.7043 19° North  Level Estimated
Thu 01:32:00 PM 40.7001 -76.6834 19° North  Level Estimated
Thu 01:33:00 PM 40.7461 -76.6624 19° North  Level Estimated
Thu 01:34:00 PM 40.7921 -76.6414 19° North  Level Estimated
Thu 01:35:00 PM 40.8381 -76.6204 19° North  Level Estimated
Thu 01:36:00 PM 40.8841 -76.5994 19° North  Level Estimated
Thu 01:37:00 PM 40.9301 -76.5783 19° North  Level Estimated
Thu 01:38:00 PM 40.9760 -76.5572 19° North  Level Estimated
Thu 01:39:00 PM 41.0220 -76.5361 19° North  Level Estimated
Thu 01:40:00 PM 41.0680 -76.5149 19° North  Level Estimated
Thu 01:41:00 PM 41.1140 -76.4937 19° North  Level Estimated
Thu 01:42:00 PM 41.1599 -76.4725 19° North  Level Estimated
Thu 01:43:00 PM 41.2059 -76.4512 19° North  Level Estimated
Thu 01:44:00 PM 41.2519 -76.4300 19° North  Level Estimated
Thu 01:45:00 PM 41.2978 -76.4087 19° North  Level Estimated
Thu 01:46:00 PM 41.3438 -76.3873 19° North  Level Estimated
Thu 01:47:00 PM 41.3897 -76.3659 19° North  Level Estimated
Thu 01:48:00 PM 41.4357 -76.3445 19° North  Level Estimated
Thu 01:49:00 PM 41.4816 -76.3231 19° North  Level Estimated
Thu 01:50:00 PM 41.5275 -76.3016 19° North  Level Estimated
Thu 01:51:00 PM 41.5735 -76.2801 19° North  Level Estimated
Thu 01:52:00 PM 41.6194 -76.2586 19° North  Level Estimated
Thu 01:53:00 PM 41.6653 -76.2371 19° North  Level Estimated
Thu 01:54:00 PM 41.7112 -76.2155 19° North  Level Estimated
Thu 01:55:00 PM 41.7572 -76.1938 19° North  Level Estimated
Thu 01:56:00 PM 41.8031 -76.1722 19° North  Level Estimated
Thu 01:57:00 PM 41.8490 -76.1505 19° North  Level Estimated
Thu 01:58:00 PM 41.8949 -76.1288 19° North  Level Estimated
Thu 01:59:00 PM 41.9408 -76.1071 19° North  Level Estimated
Thu 02:00:00 PM 41.9867 -76.0853 19° North  Level Estimated
Thu 02:01:00 PM 42.0326 -76.0635 19° North  Level Estimated
Thu 02:02:00 PM 42.0785 -76.0416 19° North  Level Estimated
Thu 02:03:00 PM 42.1243 -76.0198 19° North  Level Estimated
Thu 02:04:00 PM 42.1702 -75.9979 19° North  Level Estimated
Thu 02:05:00 PM 42.2084 -75.9796 19° North  Level Estimated
Thu 02:06:00 PM 42.2084 -75.9796 35° Northeast  Level Estimated
Thu 02:07:00 PM 42.2084 -75.9796 35° Northeast  Level Estimated
Thu 02:08:00 PM 42.2084 -75.9796 35° Northeast  Level Estimated
Thu 02:09:00 PM 42.2084 -75.9796 35° Northeast  Level Estimated
Thu 02:10:00 PM 42.2084 -75.9796 35° Northeast  Level Estimated
Thu 02:11:00 PM 42.2084 -75.9796 35° Northeast  Level Estimated
Thu 02:12:00 PM 42.2084 -75.9796 35° Northeast  Level Estimated
Thu 02:13:00 PM 42.2084 -75.9796 35° Northeast  Level Estimated
Thu 02:14:00 PM 42.2084 -75.9796 35° Northeast  Level Estimated
Thu 02:15:00 PM 42.2084 -75.9796 35° Northeast  Level Estimated
Thu 02:16:00 PM 42.2084 -75.9796 35° Northeast  Level Estimated
Thu 02:17:00 PM 42.2084 -75.9796 35° Northeast  Level Estimated
Thu 02:18:00 PM 42.2084 -75.9796 35° Northeast  Level Estimated
Thu 02:19:00 PM 42.2084 -75.9796 35° Northeast  Level Estimated
Thu 02:20:00 PM 42.2084 -75.9796 35° Northeast  Level Estimated
Thu 02:21:00 PM 42.2084 -75.9796 35° Northeast  Level Estimated
Thu 02:22:00 PM 42.2084 -75.9796 35° Northeast  Level Estimated
Thu 02:23:00 PM 42.2084 -75.9796 35° Northeast  Level Estimated
Thu 02:24:00 PM 42.2084 -75.9796 35° Northeast  Level Estimated
Thu 02:25:00 PM 42.2084 -75.9796 35° Northeast  Level Estimated
Thu 02:26:00 PM 42.2084 -75.9796 35° Northeast  Level Estimated

Login

Don't have an account? Register now (free) for customized features, flight alerts, and more!